Terminal Aerodrome Forecast
Issued by NWS

Home | Current Version | Previous Version | Text Only | Print | Product List | Glossary On
Versions: 1 2 3 4 5 6 7 8 9 10 11 12
000
FTUS45 KABQ 192300
TAFAEG
TAF
KAEG 192337Z 2000/2024 26012G20KT P6SM VCSH SCT080 BKN150
     FM200400 31008KT P6SM SCT070 BKN150
     FM200700 31006KT P6SM VCSH BKN050
     FM201100 31005KT P6SM SCT050 SCT120
     FM201800 30010KT P6SM SCT070=

USA.gov is the U.S. government's official web portal to all federal, state and local government web resources and services.